sensor_id;sensor_type;location;lat;lon;timestamp;temperature;humidity
55329;DHT22;41205;44.264;19.884;2023-04-30T00:00:55;307.80;2304.00
55329;DHT22;41205;44.264;19.884;2023-04-30T00:03:21;307.80;2304.00
55329;DHT22;41205;44.264;19.884;2023-04-30T00:05:51;307.80;2304.00
55329;DHT22;41205;44.264;19.884;2023-04-30T00:08:17;307.60;2304.00
55329;DHT22;41205;44.264;19.884;2023-04-30T00:10:43;307.40;2304.00
55329;DHT22;41205;44.264;19.884;2023-04-30T00:13:08;307.30;2304.00
55329;DHT22;41205;44.264;19.884;2023-04-30T00:15:35;307.20;2304.00
55329;DHT22;41205;44.264;19.884;2023-04-30T00:18:01;307.30;2304.00
55329;DHT22;41205;44.264;19.884;2023-04-30T00:20:26;307.20;2304.00
55329;DHT22;41205;44.264;19.884;2023-04-30T00:22:52;307.20;2304.00
55329;DHT22;41205;44.264;19.884;2023-04-30T00:25:18;282.50;2278.40
55329;DHT22;41205;44.264;19.884;2023-04-30T00:27:45;282.50;2278.40
55329;DHT22;41205;44.264;19.884;2023-04-30T00:30:11;282.50;2278.40
55329;DHT22;41205;44.264;19.884;2023-04-30T00:32:37;282.50;2278.40
55329;DHT22;41205;44.264;19.884;2023-04-30T00:35:03;307.20;2304.00
55329;DHT22;41205;44.264;19.884;2023-04-30T00:37:29;282.50;2278.40
55329;DHT22;41205;44.264;19.884;2023-04-30T00:39:55;282.40;2278.40
55329;DHT22;41205;44.264;19.884;2023-04-30T00:42:20;282.40;2278.40
55329;DHT22;41205;44.264;19.884;2023-04-30T00:44:46;282.30;2278.40
55329;DHT22;41205;44.264;19.884;2023-04-30T00:47:12;282.20;2278.40
55329;DHT22;41205;44.264;19.884;2023-04-30T00:49:37;282.30;2278.40
55329;DHT22;41205;44.264;19.884;2023-04-30T00:52:03;282.40;2278.40
55329;DHT22;41205;44.264;19.884;2023-04-30T00:54:29;282.40;2278.40
55329;DHT22;41205;44.264;19.884;2023-04-30T00:56:55;282.50;2278.40
55329;DHT22;41205;44.264;19.884;2023-04-30T00:59:21;282.50;2278.40
55329;DHT22;41205;44.264;19.884;2023-04-30T01:01:47;282.50;2278.40
55329;DHT22;41205;44.264;19.884;2023-04-30T01:04:13;307.20;2304.00
55329;DHT22;41205;44.264;19.884;2023-04-30T01:06:39;307.20;2304.00
55329;DHT22;41205;44.264;19.884;2023-04-30T01:09:05;282.50;2278.40
55329;DHT22;41205;44.264;19.884;2023-04-30T01:17:16;282.20;2278.40
55329;DHT22;41205;44.264;19.884;2023-04-30T01:19:44;282.20;2278.40
55329;DHT22;41205;44.264;19.884;2023-04-30T01:22:28;282.10;2278.40
55329;DHT22;41205;44.264;19.884;2023-04-30T01:28:02;282.20;2278.40
55329;DHT22;41205;44.264;19.884;2023-04-30T01:30:30;282.20;2278.40
55329;DHT22;41205;44.264;19.884;2023-04-30T01:32:56;282.20;2278.40
55329;DHT22;41205;44.264;19.884;2023-04-30T01:35:41;282.20;2278.40
55329;DHT22;41205;44.264;19.884;2023-04-30T01:40:50;282.20;2278.40
55329;DHT22;41205;44.264;19.884;2023-04-30T01:43:40;282.20;2278.40
55329;DHT22;41205;44.264;19.884;2023-04-30T01:46:24;282.20;2278.40
55329;DHT22;41205;44.264;19.884;2023-04-30T01:51:39;282.20;2278.40
55329;DHT22;41205;44.264;19.884;2023-04-30T01:54:19;282.20;2278.40
55329;DHT22;41205;44.264;19.884;2023-04-30T01:57:05;282.20;2278.40
55329;DHT22;41205;44.264;19.884;2023-04-30T01:59:34;282.20;2278.40
55329;DHT22;41205;44.264;19.884;2023-04-30T02:02:00;282.20;2278.40
55329;DHT22;41205;44.264;19.884;2023-04-30T02:04:26;282.30;2278.40
55329;DHT22;41205;44.264;19.884;2023-04-30T02:06:52;282.30;2278.40
55329;DHT22;41205;44.264;19.884;2023-04-30T02:09:18;282.30;2278.40
55329;DHT22;41205;44.264;19.884;2023-04-30T02:11:43;282.30;2278.40
55329;DHT22;41205;44.264;19.884;2023-04-30T02:14:09;282.20;2278.40
55329;DHT22;41205;44.264;19.884;2023-04-30T02:16:35;282.30;2278.40
55329;DHT22;41205;44.264;19.884;2023-04-30T02:19:01;282.30;2278.40
55329;DHT22;41205;44.264;19.884;2023-04-30T02:21:27;282.30;2278.40
55329;DHT22;41205;44.264;19.884;2023-04-30T02:23:52;282.20;2278.40
55329;DHT22;41205;44.264;19.884;2023-04-30T02:26:19;282.20;2278.40
55329;DHT22;41205;44.264;19.884;2023-04-30T02:28:45;282.20;2278.40
55329;DHT22;41205;44.264;19.884;2023-04-30T02:31:11;282.20;2278.40
55329;DHT22;41205;44.264;19.884;2023-04-30T02:33:37;282.20;2278.40
55329;DHT22;41205;44.264;19.884;2023-04-30T02:36:03;282.20;2278.40
55329;DHT22;41205;44.264;19.884;2023-04-30T02:38:30;282.20;2278.40
55329;DHT22;41205;44.264;19.884;2023-04-30T02:40:55;282.10;2278.40
55329;DHT22;41205;44.264;19.884;2023-04-30T02:43:21;282.10;2278.40
55329;DHT22;41205;44.264;19.884;2023-04-30T02:45:47;282.10;2278.40
55329;DHT22;41205;44.264;19.884;2023-04-30T02:48:13;282.10;2278.40
55329;DHT22;41205;44.264;19.884;2023-04-30T02:50:38;282.00;2278.40
55329;DHT22;41205;44.264;19.884;2023-04-30T02:53:04;282.10;2278.40
55329;DHT22;41205;44.264;19.884;2023-04-30T02:55:30;282.10;2278.40
55329;DHT22;41205;44.264;19.884;2023-04-30T02:57:56;282.10;2278.40
55329;DHT22;41205;44.264;19.884;2023-04-30T03:00:21;282.10;2278.40
55329;DHT22;41205;44.264;19.884;2023-04-30T03:02:47;282.10;2278.40
55329;DHT22;41205;44.264;19.884;2023-04-30T03:05:13;282.20;2278.40
55329;DHT22;41205;44.264;19.884;2023-04-30T03:07:40;282.20;2278.40
55329;DHT22;41205;44.264;19.884;2023-04-30T03:10:06;282.20;2278.40
55329;DHT22;41205;44.264;19.884;2023-04-30T03:12:32;282.30;2278.40
55329;DHT22;41205;44.264;19.884;2023-04-30T03:14:58;282.40;2278.40
55329;DHT22;41205;44.264;19.884;2023-04-30T03:17:24;282.40;2278.40
55329;DHT22;41205;44.264;19.884;2023-04-30T03:19:50;282.50;2278.40
55329;DHT22;41205;44.264;19.884;2023-04-30T03:22:16;282.50;2278.40
55329;DHT22;41205;44.264;19.884;2023-04-30T03:24:44;307.20;2304.00
55329;DHT22;41205;44.264;19.884;2023-04-30T03:27:10;307.30;2304.00
55329;DHT22;41205;44.264;19.884;2023-04-30T03:29:35;282.30;2278.40
55329;DHT22;41205;44.264;19.884;2023-04-30T03:32:01;282.20;2278.40
55329;DHT22;41205;44.264;19.884;2023-04-30T03:34:27;282.20;2278.40
55329;DHT22;41205;44.264;19.884;2023-04-30T03:36:53;282.30;2278.40
55329;DHT22;41205;44.264;19.884;2023-04-30T03:39:18;282.40;2278.40
55329;DHT22;41205;44.264;19.884;2023-04-30T03:41:44;282.50;2278.40
55329;DHT22;41205;44.264;19.884;2023-04-30T03:44:10;282.50;2278.40
55329;DHT22;41205;44.264;19.884;2023-04-30T03:46:40;282.50;2278.40
55329;DHT22;41205;44.264;19.884;2023-04-30T03:49:07;307.20;2304.00
55329;DHT22;41205;44.264;19.884;2023-04-30T03:51:33;307.20;2304.00
55329;DHT22;41205;44.264;19.884;2023-04-30T03:54:05;282.50;2278.40
55329;DHT22;41205;44.264;19.884;2023-04-30T03:56:31;282.40;2278.40
55329;DHT22;41205;44.264;19.884;2023-04-30T03:58:57;282.50;2278.40
55329;DHT22;41205;44.264;19.884;2023-04-30T04:01:23;307.20;2304.00
55329;DHT22;41205;44.264;19.884;2023-04-30T04:03:49;307.20;2304.00
55329;DHT22;41205;44.264;19.884;2023-04-30T04:06:15;307.20;2304.00
55329;DHT22;41205;44.264;19.884;2023-04-30T04:08:40;307.20;2304.00
55329;DHT22;41205;44.264;19.884;2023-04-30T04:11:09;307.30;2304.00
55329;DHT22;41205;44.264;19.884;2023-04-30T04:13:35;307.40;2304.00
55329;DHT22;41205;44.264;19.884;2023-04-30T04:16:01;307.50;2304.00
55329;DHT22;41205;44.264;19.884;2023-04-30T04:18:27;307.50;2304.00
55329;DHT22;41205;44.264;19.884;2023-04-30T04:20:54;307.70;2304.00
55329;DHT22;41205;44.264;19.884;2023-04-30T04:23:20;307.80;2304.00
55329;DHT22;41205;44.264;19.884;2023-04-30T04:25:46;307.90;2304.00
55329;DHT22;41205;44.264;19.884;2023-04-30T04:28:14;308.10;2304.00
55329;DHT22;41205;44.264;19.884;2023-04-30T04:30:41;332.90;2329.60
55329;DHT22;41205;44.264;19.884;2023-04-30T04:33:06;333.00;2329.60
55329;DHT22;41205;44.264;19.884;2023-04-30T04:35:33;333.20;2329.60
55329;DHT22;41205;44.264;19.884;2023-04-30T04:37:59;333.40;2329.60
55329;DHT22;41205;44.264;19.884;2023-04-30T04:40:24;333.60;2329.60
55329;DHT22;41205;44.264;19.884;2023-04-30T04:42:50;358.40;2329.60
55329;DHT22;41205;44.264;19.884;2023-04-30T04:45:16;358.40;2329.60
55329;DHT22;41205;44.264;19.884;2023-04-30T04:47:42;358.40;2329.60
55329;DHT22;41205;44.264;19.884;2023-04-30T04:50:08;358.60;2329.60
55329;DHT22;41205;44.264;19.884;2023-04-30T04:52:34;358.90;2329.60
55329;DHT22;41205;44.264;19.884;2023-04-30T04:55:00;359.30;2329.60
55329;DHT22;41205;44.264;19.884;2023-04-30T04:57:26;359.00;2329.60
55329;DHT22;41205;44.264;19.884;2023-04-30T04:59:51;359.10;2329.60
55329;DHT22;41205;44.264;19.884;2023-04-30T05:02:17;359.20;2329.60
55329;DHT22;41205;44.264;19.884;2023-04-30T05:04:43;384.00;2329.60
55329;DHT22;41205;44.264;19.884;2023-04-30T05:07:11;384.70;2329.60
55329;DHT22;41205;44.264;19.884;2023-04-30T05:09:36;435.80;2355.20
55329;DHT22;41205;44.264;19.884;2023-04-30T05:12:02;436.10;2355.20
55329;DHT22;41205;44.264;19.884;2023-04-30T05:14:28;461.00;2380.80
55329;DHT22;41205;44.264;19.884;2023-04-30T05:16:54;487.30;2201.60
55329;DHT22;41205;44.264;19.884;2023-04-30T05:19:20;487.20;2201.60
55329;DHT22;41205;44.264;19.884;2023-04-30T05:21:46;486.60;2252.80
55329;DHT22;41205;44.264;19.884;2023-04-30T05:24:12;461.30;2329.60
55329;DHT22;41205;44.264;19.884;2023-04-30T05:26:37;461.20;2380.80
55329;DHT22;41205;44.264;19.884;2023-04-30T05:29:03;460.80;2380.80
55329;DHT22;41205;44.264;19.884;2023-04-30T05:31:29;436.10;2355.20
55329;DHT22;41205;44.264;19.884;2023-04-30T05:33:56;460.80;2380.80
55329;DHT22;41205;44.264;19.884;2023-04-30T05:36:22;435.90;2355.20
55329;DHT22;41205;44.264;19.884;2023-04-30T05:38:48;435.90;2355.20
55329;DHT22;41205;44.264;19.884;2023-04-30T05:41:13;435.70;2355.20
55329;DHT22;41205;44.264;19.884;2023-04-30T05:43:39;435.90;2355.20
55329;DHT22;41205;44.264;19.884;2023-04-30T05:46:05;460.90;2380.80
55329;DHT22;41205;44.264;19.884;2023-04-30T05:48:30;461.20;2380.80
55329;DHT22;41205;44.264;19.884;2023-04-30T05:50:56;461.50;2380.80
55329;DHT22;41205;44.264;19.884;2023-04-30T05:53:22;486.50;2355.20
55329;DHT22;41205;44.264;19.884;2023-04-30T05:55:47;512.90;2124.80
55329;DHT22;41205;44.264;19.884;2023-04-30T05:58:13;640.40;1766.40
55329;DHT22;41205;44.264;19.884;2023-04-30T06:00:39;716.80;1561.60
55329;DHT22;41205;44.264;19.884;2023-04-30T06:03:05;665.90;1638.40
55329;DHT22;41205;44.264;19.884;2023-04-30T06:05:32;640.00;1715.20
55329;DHT22;41205;44.264;19.884;2023-04-30T06:07:57;615.20;1715.20
55329;DHT22;41205;44.264;19.884;2023-04-30T06:10:23;665.70;1664.00
55329;DHT22;41205;44.264;19.884;2023-04-30T06:12:49;640.90;1638.40
55329;DHT22;41205;44.264;19.884;2023-04-30T06:15:15;666.20;1612.80
55329;DHT22;41205;44.264;19.884;2023-04-30T06:17:41;742.60;1510.40
55329;DHT22;41205;44.264;19.884;2023-04-30T06:20:07;768.10;1433.60
55329;DHT22;41205;44.264;19.884;2023-04-30T06:22:33;819.70;1331.20
55329;DHT22;41205;44.264;19.884;2023-04-30T06:24:58;820.00;1305.60
55329;DHT22;41205;44.264;19.884;2023-04-30T06:27:24;794.30;1356.80
55329;DHT22;41205;44.264;19.884;2023-04-30T06:29:53;819.40;1331.20
55329;DHT22;41205;44.264;19.884;2023-04-30T06:32:19;870.80;1228.80
55329;DHT22;41205;44.264;19.884;2023-04-30T06:37:11;871.10;1203.20
55329;DHT22;41205;44.264;19.884;2023-04-30T06:42:03;921.70;1177.60
55329;DHT22;41205;44.264;19.884;2023-04-30T06:44:29;947.60;1126.40
55329;DHT22;41205;44.264;19.884;2023-04-30T06:49:21;947.50;1100.80
55329;DHT22;41205;44.264;19.884;2023-04-30T06:51:47;948.00;1075.20
55329;DHT22;41205;44.264;19.884;2023-04-30T06:54:12;972.90;1075.20
55329;DHT22;41205;44.264;19.884;2023-04-30T06:56:38;972.80;1075.20
55329;DHT22;41205;44.264;19.884;2023-04-30T06:59:04;998.50;1049.60
55329;DHT22;41205;44.264;19.884;2023-04-30T07:01:30;973.20;1024.00
55329;DHT22;41205;44.264;19.884;2023-04-30T07:03:56;998.60;1024.00
55329;DHT22;41205;44.264;19.884;2023-04-30T07:06:21;1024.00;998.40
55329;DHT22;41205;44.264;19.884;2023-04-30T07:08:47;999.30;1024.00
55329;DHT22;41205;44.264;19.884;2023-04-30T07:11:13;998.50;1049.60
55329;DHT22;41205;44.264;19.884;2023-04-30T07:13:38;973.50;1049.60
55329;DHT22;41205;44.264;19.884;2023-04-30T07:16:05;999.00;1024.00
55329;DHT22;41205;44.264;19.884;2023-04-30T07:18:30;947.30;1075.20
55329;DHT22;41205;44.264;19.884;2023-04-30T07:20:56;998.40;1049.60
55329;DHT22;41205;44.264;19.884;2023-04-30T07:25:48;999.10;998.40
55329;DHT22;41205;44.264;19.884;2023-04-30T07:28:14;870.50;1152.00
55329;DHT22;41205;44.264;19.884;2023-04-30T07:30:40;794.00;1280.00
55329;DHT22;41205;44.264;19.884;2023-04-30T07:33:06;743.10;1331.20
55329;DHT22;41205;44.264;19.884;2023-04-30T07:35:32;717.50;1382.40
55329;DHT22;41205;44.264;19.884;2023-04-30T07:37:58;716.90;1408.00
55329;DHT22;41205;44.264;19.884;2023-04-30T07:40:24;692.00;1408.00
55329;DHT22;41205;44.264;19.884;2023-04-30T07:42:49;691.30;1433.60
55329;DHT22;41205;44.264;19.884;2023-04-30T07:45:15;666.20;1484.80
55329;DHT22;41205;44.264;19.884;2023-04-30T07:47:41;666.20;1484.80
55329;DHT22;41205;44.264;19.884;2023-04-30T07:50:06;665.90;1536.00
55329;DHT22;41205;44.264;19.884;2023-04-30T07:52:32;666.00;1510.40
55329;DHT22;41205;44.264;19.884;2023-04-30T07:54:58;665.80;1536.00
55329;DHT22;41205;44.264;19.884;2023-04-30T07:57:23;640.90;1536.00
55329;DHT22;41205;44.264;19.884;2023-04-30T07:59:52;666.00;1536.00
55329;DHT22;41205;44.264;19.884;2023-04-30T08:02:18;691.20;1510.40
55329;DHT22;41205;44.264;19.884;2023-04-30T08:04:44;691.60;1484.80
55329;DHT22;41205;44.264;19.884;2023-04-30T08:07:09;716.90;1459.20
55329;DHT22;41205;44.264;19.884;2023-04-30T08:09:35;717.50;1459.20
55329;DHT22;41205;44.264;19.884;2023-04-30T08:12:01;742.60;1433.60
55329;DHT22;41205;44.264;19.884;2023-04-30T08:14:29;692.10;1433.60
55329;DHT22;41205;44.264;19.884;2023-04-30T08:16:55;691.20;1484.80
55329;DHT22;41205;44.264;19.884;2023-04-30T08:19:23;666.10;1536.00
55329;DHT22;41205;44.264;19.884;2023-04-30T08:21:49;666.20;1561.60
55329;DHT22;41205;44.264;19.884;2023-04-30T08:24:15;691.80;1484.80
55329;DHT22;41205;44.264;19.884;2023-04-30T08:26:41;717.00;1459.20
55329;DHT22;41205;44.264;19.884;2023-04-30T08:29:07;742.70;1408.00
55329;DHT22;41205;44.264;19.884;2023-04-30T08:31:35;716.80;1459.20
55329;DHT22;41205;44.264;19.884;2023-04-30T08:34:01;666.20;1536.00
55329;DHT22;41205;44.264;19.884;2023-04-30T08:36:26;666.20;1536.00
55329;DHT22;41205;44.264;19.884;2023-04-30T08:38:52;665.60;1561.60
55329;DHT22;41205;44.264;19.884;2023-04-30T08:41:21;640.90;1536.00
55329;DHT22;41205;44.264;19.884;2023-04-30T08:43:51;666.00;1587.20
55329;DHT22;41205;44.264;19.884;2023-04-30T08:46:19;665.90;1536.00
55329;DHT22;41205;44.264;19.884;2023-04-30T08:48:45;666.00;1484.80
55329;DHT22;41205;44.264;19.884;2023-04-30T08:51:13;665.90;1536.00
55329;DHT22;41205;44.264;19.884;2023-04-30T08:53:39;665.80;1510.40
55329;DHT22;41205;44.264;19.884;2023-04-30T08:56:09;665.80;1536.00
55329;DHT22;41205;44.264;19.884;2023-04-30T08:58:35;666.00;1536.00
55329;DHT22;41205;44.264;19.884;2023-04-30T09:01:02;665.90;1561.60
55329;DHT22;41205;44.264;19.884;2023-04-30T09:03:32;665.60;1561.60
55329;DHT22;41205;44.264;19.884;2023-04-30T09:05:57;640.70;1561.60
55329;DHT22;41205;44.264;19.884;2023-04-30T09:08:43;640.90;1561.60
55329;DHT22;41205;44.264;19.884;2023-04-30T09:11:30;665.80;1561.60
55329;DHT22;41205;44.264;19.884;2023-04-30T09:13:57;640.50;1561.60
55329;DHT22;41205;44.264;19.884;2023-04-30T09:16:24;640.90;1561.60
55329;DHT22;41205;44.264;19.884;2023-04-30T09:18:51;665.60;1587.20
55329;DHT22;41205;44.264;19.884;2023-04-30T09:21:38;665.70;1561.60
55329;DHT22;41205;44.264;19.884;2023-04-30T09:24:04;665.70;1561.60
55329;DHT22;41205;44.264;19.884;2023-04-30T09:26:37;665.70;1587.20
55329;DHT22;41205;44.264;19.884;2023-04-30T09:29:04;665.70;1612.80
55329;DHT22;41205;44.264;19.884;2023-04-30T09:31:33;665.70;1587.20
55329;DHT22;41205;44.264;19.884;2023-04-30T09:34:00;665.70;1587.20
55329;DHT22;41205;44.264;19.884;2023-04-30T09:36:26;665.70;1587.20
55329;DHT22;41205;44.264;19.884;2023-04-30T09:38:52;640.90;1587.20
55329;DHT22;41205;44.264;19.884;2023-04-30T09:43:47;640.80;1612.80
55329;DHT22;41205;44.264;19.884;2023-04-30T09:46:13;640.80;1587.20
55329;DHT22;41205;44.264;19.884;2023-04-30T09:48:43;640.60;1638.40
55329;DHT22;41205;44.264;19.884;2023-04-30T09:51:09;640.90;1587.20
55329;DHT22;41205;44.264;19.884;2023-04-30T09:53:41;665.60;1638.40
55329;DHT22;41205;44.264;19.884;2023-04-30T09:56:07;666.00;1612.80
55329;DHT22;41205;44.264;19.884;2023-04-30T09:58:37;666.00;1587.20
55329;DHT22;41205;44.264;19.884;2023-04-30T10:01:04;640.70;1638.40
55329;DHT22;41205;44.264;19.884;2023-04-30T10:03:39;640.60;1612.80
55329;DHT22;41205;44.264;19.884;2023-04-30T10:06:06;640.40;1638.40
55329;DHT22;41205;44.264;19.884;2023-04-30T10:08:53;640.30;1638.40
55329;DHT22;41205;44.264;19.884;2023-04-30T10:11:25;640.50;1612.80
55329;DHT22;41205;44.264;19.884;2023-04-30T10:14:11;640.40;1612.80
55329;DHT22;41205;44.264;19.884;2023-04-30T10:16:55;640.50;1612.80
55329;DHT22;41205;44.264;19.884;2023-04-30T10:19:24;640.60;1612.80
55329;DHT22;41205;44.264;19.884;2023-04-30T10:21:50;665.60;1612.80
55329;DHT22;41205;44.264;19.884;2023-04-30T10:24:18;665.70;1561.60
55329;DHT22;41205;44.264;19.884;2023-04-30T10:26:45;640.70;1561.60
55329;DHT22;41205;44.264;19.884;2023-04-30T10:29:16;640.40;1612.80
55329;DHT22;41205;44.264;19.884;2023-04-30T10:31:45;640.60;1561.60
55329;DHT22;41205;44.264;19.884;2023-04-30T10:36:41;640.30;1587.20
55329;DHT22;41205;44.264;19.884;2023-04-30T10:39:10;640.00;1587.20
55329;DHT22;41205;44.264;19.884;2023-04-30T10:41:37;640.00;1561.60
55329;DHT22;41205;44.264;19.884;2023-04-30T10:44:03;615.30;1587.20
55329;DHT22;41205;44.264;19.884;2023-04-30T10:46:34;615.00;1638.40
55329;DHT22;41205;44.264;19.884;2023-04-30T10:49:00;614.60;1664.00
55329;DHT22;41205;44.264;19.884;2023-04-30T10:51:47;589.70;1689.60
55329;DHT22;41205;44.264;19.884;2023-04-30T10:54:17;589.40;1715.20
55329;DHT22;41205;44.264;19.884;2023-04-30T10:56:46;589.30;1664.00
55329;DHT22;41205;44.264;19.884;2023-04-30T10:59:13;589.30;1689.60
55329;DHT22;41205;44.264;19.884;2023-04-30T11:02:00;589.10;1689.60
55329;DHT22;41205;44.264;19.884;2023-04-30T11:04:26;588.90;1843.20
55329;DHT22;41205;44.264;19.884;2023-04-30T11:09:35;588.90;1868.80
55329;DHT22;41205;44.264;19.884;2023-04-30T11:12:12;589.20;1868.80
55329;DHT22;41205;44.264;19.884;2023-04-30T11:14:43;589.30;1817.60
55329;DHT22;41205;44.264;19.884;2023-04-30T11:17:11;589.60;1792.00
55329;DHT22;41205;44.264;19.884;2023-04-30T11:19:48;589.70;1766.40
55329;DHT22;41205;44.264;19.884;2023-04-30T11:22:15;589.70;1766.40
55329;DHT22;41205;44.264;19.884;2023-04-30T11:27:24;589.70;1740.80
55329;DHT22;41205;44.264;19.884;2023-04-30T11:29:51;589.50;1792.00
55329;DHT22;41205;44.264;19.884;2023-04-30T11:32:18;589.10;1792.00
55329;DHT22;41205;44.264;19.884;2023-04-30T11:34:45;589.00;1740.80
55329;DHT22;41205;44.264;19.884;2023-04-30T11:37:41;588.80;1766.40
55329;DHT22;41205;44.264;19.884;2023-04-30T11:40:10;564.10;1766.40
55329;DHT22;41205;44.264;19.884;2023-04-30T11:42:40;589.00;1766.40
55329;DHT22;41205;44.264;19.884;2023-04-30T11:45:13;589.50;1792.00
55329;DHT22;41205;44.264;19.884;2023-04-30T11:50:10;614.80;1689.60
55329;DHT22;41205;44.264;19.884;2023-04-30T11:52:37;614.50;1664.00
55329;DHT22;41205;44.264;19.884;2023-04-30T11:55:15;615.00;1664.00
55329;DHT22;41205;44.264;19.884;2023-04-30T11:57:45;615.00;1638.40
55329;DHT22;41205;44.264;19.884;2023-04-30T12:02:39;589.70;1689.60
55329;DHT22;41205;44.264;19.884;2023-04-30T12:05:14;589.00;1740.80
55329;DHT22;41205;44.264;19.884;2023-04-30T12:07:53;564.10;1766.40
55329;DHT22;41205;44.264;19.884;2023-04-30T12:10:20;564.10;1792.00
55329;DHT22;41205;44.264;19.884;2023-04-30T12:12:49;564.10;1766.40
55329;DHT22;41205;44.264;19.884;2023-04-30T12:15:16;588.90;1715.20
55329;DHT22;41205;44.264;19.884;2023-04-30T12:17:44;588.90;1740.80
55329;DHT22;41205;44.264;19.884;2023-04-30T12:20:12;564.10;1792.00
55329;DHT22;41205;44.264;19.884;2023-04-30T12:22:39;589.30;1792.00
55329;DHT22;41205;44.264;19.884;2023-04-30T12:25:06;589.70;1766.40
55329;DHT22;41205;44.264;19.884;2023-04-30T12:27:34;614.80;1766.40
55329;DHT22;41205;44.264;19.884;2023-04-30T12:30:08;589.70;1792.00
55329;DHT22;41205;44.264;19.884;2023-04-30T12:32:55;589.40;1740.80
55329;DHT22;41205;44.264;19.884;2023-04-30T12:35:22;564.10;1766.40
55329;DHT22;41205;44.264;19.884;2023-04-30T12:37:50;563.80;1868.80
55329;DHT22;41205;44.264;19.884;2023-04-30T12:40:20;563.90;1868.80
55329;DHT22;41205;44.264;19.884;2023-04-30T12:42:46;563.90;1894.40
55329;DHT22;41205;44.264;19.884;2023-04-30T12:45:40;563.60;1945.60
55329;DHT22;41205;44.264;19.884;2023-04-30T12:47:59;538.40;1920.00
55329;DHT22;41205;44.264;19.884;2023-04-30T12:50:25;538.30;1945.60
55329;DHT22;41205;44.264;19.884;2023-04-30T12:52:51;538.50;1971.20
55329;DHT22;41205;44.264;19.884;2023-04-30T12:55:18;538.50;1920.00
55329;DHT22;41205;44.264;19.884;2023-04-30T12:58:04;563.20;1971.20
55329;DHT22;41205;44.264;19.884;2023-04-30T13:00:51;563.60;2022.40
55329;DHT22;41205;44.264;19.884;2023-04-30T13:03:20;563.50;1971.20
55329;DHT22;41205;44.264;19.884;2023-04-30T13:05:50;563.90;1996.80
55329;DHT22;41205;44.264;19.884;2023-04-30T13:08:17;564.00;1971.20
55329;DHT22;41205;44.264;19.884;2023-04-30T13:10:47;563.90;1971.20
55329;DHT22;41205;44.264;19.884;2023-04-30T13:13:14;564.10;1945.60
55329;DHT22;41205;44.264;19.884;2023-04-30T13:15:41;588.90;1971.20
55329;DHT22;41205;44.264;19.884;2023-04-30T13:18:07;564.10;1996.80
55329;DHT22;41205;44.264;19.884;2023-04-30T13:20:36;589.20;1971.20
55329;DHT22;41205;44.264;19.884;2023-04-30T13:23:03;589.60;1971.20
55329;DHT22;41205;44.264;19.884;2023-04-30T13:25:29;589.70;1843.20
55329;DHT22;41205;44.264;19.884;2023-04-30T13:27:55;589.70;1740.80
55329;DHT22;41205;44.264;19.884;2023-04-30T13:30:22;589.50;1715.20
55329;DHT22;41205;44.264;19.884;2023-04-30T13:32:48;589.50;1740.80
55329;DHT22;41205;44.264;19.884;2023-04-30T13:35:14;589.30;1740.80
55329;DHT22;41205;44.264;19.884;2023-04-30T13:37:40;589.10;1715.20
55329;DHT22;41205;44.264;19.884;2023-04-30T13:40:07;588.90;1715.20
55329;DHT22;41205;44.264;19.884;2023-04-30T13:42:36;589.20;1689.60
55329;DHT22;41205;44.264;19.884;2023-04-30T13:45:02;589.30;1715.20
55329;DHT22;41205;44.264;19.884;2023-04-30T13:47:28;589.40;1740.80
55329;DHT22;41205;44.264;19.884;2023-04-30T13:49:54;589.10;1715.20
55329;DHT22;41205;44.264;19.884;2023-04-30T13:52:20;589.10;1715.20
55329;DHT22;41205;44.264;19.884;2023-04-30T13:54:45;589.30;1740.80
55329;DHT22;41205;44.264;19.884;2023-04-30T13:57:11;589.30;1715.20
55329;DHT22;41205;44.264;19.884;2023-04-30T13:59:37;589.30;1715.20
55329;DHT22;41205;44.264;19.884;2023-04-30T14:02:03;589.40;1715.20
55329;DHT22;41205;44.264;19.884;2023-04-30T14:04:28;589.40;1664.00
55329;DHT22;41205;44.264;19.884;2023-04-30T14:06:55;589.50;1715.20
55329;DHT22;41205;44.264;19.884;2023-04-30T14:09:22;589.50;1715.20
55329;DHT22;41205;44.264;19.884;2023-04-30T14:11:48;589.30;1715.20
55329;DHT22;41205;44.264;19.884;2023-04-30T14:14:13;589.00;1715.20
55329;DHT22;41205;44.264;19.884;2023-04-30T14:16:39;588.80;1715.20
55329;DHT22;41205;44.264;19.884;2023-04-30T14:19:05;589.00;1715.20
55329;DHT22;41205;44.264;19.884;2023-04-30T14:21:31;589.30;1715.20
55329;DHT22;41205;44.264;19.884;2023-04-30T14:23:57;589.20;1715.20
55329;DHT22;41205;44.264;19.884;2023-04-30T14:26:23;589.00;1740.80
55329;DHT22;41205;44.264;19.884;2023-04-30T14:28:49;563.90;1843.20
55329;DHT22;41205;44.264;19.884;2023-04-30T14:31:16;563.30;1945.60
55329;DHT22;41205;44.264;19.884;2023-04-30T14:33:42;538.50;1996.80
55329;DHT22;41205;44.264;19.884;2023-04-30T14:36:08;538.00;2099.20
55329;DHT22;41205;44.264;19.884;2023-04-30T14:38:33;537.80;2124.80
55329;DHT22;41205;44.264;19.884;2023-04-30T14:40:59;512.90;2124.80
55329;DHT22;41205;44.264;19.884;2023-04-30T14:43:25;512.90;2124.80
55329;DHT22;41205;44.264;19.884;2023-04-30T14:45:51;512.80;2176.00
55329;DHT22;41205;44.264;19.884;2023-04-30T14:48:17;512.60;2201.60
55329;DHT22;41205;44.264;19.884;2023-04-30T14:50:43;512.70;2227.20
55329;DHT22;41205;44.264;19.884;2023-04-30T14:53:09;512.40;2278.40
55329;DHT22;41205;44.264;19.884;2023-04-30T14:55:36;512.20;2380.80
55329;DHT22;41205;44.264;19.884;2023-04-30T14:58:02;512.60;2380.80
55329;DHT22;41205;44.264;19.884;2023-04-30T15:00:29;512.40;2380.80
55329;DHT22;41205;44.264;19.884;2023-04-30T15:02:55;512.50;2380.80
55329;DHT22;41205;44.264;19.884;2023-04-30T15:05:20;512.80;2380.80
55329;DHT22;41205;44.264;19.884;2023-04-30T15:07:46;512.80;2380.80
55329;DHT22;41205;44.264;19.884;2023-04-30T15:10:12;512.80;2380.80
55329;DHT22;41205;44.264;19.884;2023-04-30T15:12:37;512.70;2380.80
55329;DHT22;41205;44.264;19.884;2023-04-30T15:15:04;512.60;2380.80
55329;DHT22;41205;44.264;19.884;2023-04-30T15:17:30;512.40;2380.80